sensor_id;sensor_type;location;lat;lon;timestamp;P1;durP1;ratioP1;P2;durP2;ratioP2
18716;SDS011;9487;50.892;6.906;2024-01-07T00:01:13;75.63;;;36.57;;
18716;SDS011;9487;50.892;6.906;2024-01-07T00:03:40;73.87;;;34.70;;
18716;SDS011;9487;50.892;6.906;2024-01-07T00:06:09;74.40;;;36.60;;
18716;SDS011;9487;50.892;6.906;2024-01-07T00:08:36;76.43;;;37.47;;
18716;SDS011;9487;50.892;6.906;2024-01-07T00:11:03;73.40;;;34.87;;
18716;SDS011;9487;50.892;6.906;2024-01-07T00:13:30;71.30;;;34.07;;
18716;SDS011;9487;50.892;6.906;2024-01-07T00:15:57;70.57;;;34.67;;
18716;SDS011;9487;50.892;6.906;2024-01-07T00:18:24;67.33;;;34.17;;
18716;SDS011;9487;50.892;6.906;2024-01-07T00:20:52;69.67;;;35.13;;
18716;SDS011;9487;50.892;6.906;2024-01-07T00:23:20;71.53;;;34.27;;
18716;SDS011;9487;50.892;6.906;2024-01-07T00:25:47;71.07;;;33.90;;
18716;SDS011;9487;50.892;6.906;2024-01-07T00:28:14;68.70;;;35.80;;
18716;SDS011;9487;50.892;6.906;2024-01-07T00:30:41;68.90;;;34.07;;
18716;SDS011;9487;50.892;6.906;2024-01-07T00:33:08;66.37;;;33.97;;
18716;SDS011;9487;50.892;6.906;2024-01-07T00:35:35;67.33;;;34.60;;
18716;SDS011;9487;50.892;6.906;2024-01-07T00:38:02;67.80;;;34.90;;
18716;SDS011;9487;50.892;6.906;2024-01-07T00:40:30;62.40;;;32.80;;
18716;SDS011;9487;50.892;6.906;2024-01-07T00:42:57;65.60;;;31.77;;
18716;SDS011;9487;50.892;6.906;2024-01-07T00:45:24;67.17;;;33.97;;
18716;SDS011;9487;50.892;6.906;2024-01-07T00:47:51;64.93;;;33.63;;
18716;SDS011;9487;50.892;6.906;2024-01-07T00:50:19;60.27;;;32.30;;
18716;SDS011;9487;50.892;6.906;2024-01-07T00:52:46;57.40;;;31.30;;
18716;SDS011;9487;50.892;6.906;2024-01-07T00:55:13;59.33;;;32.00;;
18716;SDS011;9487;50.892;6.906;2024-01-07T00:57:42;61.43;;;31.47;;
18716;SDS011;9487;50.892;6.906;2024-01-07T01:00:09;50.43;;;28.00;;
18716;SDS011;9487;50.892;6.906;2024-01-07T01:02:36;49.60;;;28.37;;
18716;SDS011;9487;50.892;6.906;2024-01-07T01:05:04;54.93;;;27.83;;
18716;SDS011;9487;50.892;6.906;2024-01-07T01:07:31;51.40;;;28.63;;
18716;SDS011;9487;50.892;6.906;2024-01-07T01:09:58;49.80;;;27.90;;
18716;SDS011;9487;50.892;6.906;2024-01-07T01:12:25;52.93;;;28.77;;
18716;SDS011;9487;50.892;6.906;2024-01-07T01:14:53;49.33;;;27.67;;
18716;SDS011;9487;50.892;6.906;2024-01-07T01:17:20;50.33;;;26.77;;
18716;SDS011;9487;50.892;6.906;2024-01-07T01:19:47;49.40;;;26.23;;
18716;SDS011;9487;50.892;6.906;2024-01-07T01:22:14;44.87;;;25.87;;
18716;SDS011;9487;50.892;6.906;2024-01-07T01:24:41;43.73;;;25.23;;
18716;SDS011;9487;50.892;6.906;2024-01-07T01:27:10;47.27;;;26.20;;
18716;SDS011;9487;50.892;6.906;2024-01-07T01:29:38;46.23;;;25.73;;
18716;SDS011;9487;50.892;6.906;2024-01-07T01:32:06;46.10;;;24.60;;
18716;SDS011;9487;50.892;6.906;2024-01-07T01:34:33;45.47;;;25.90;;
18716;SDS011;9487;50.892;6.906;2024-01-07T01:37:00;40.83;;;23.87;;
18716;SDS011;9487;50.892;6.906;2024-01-07T01:39:27;43.30;;;24.00;;
18716;SDS011;9487;50.892;6.906;2024-01-07T01:41:55;42.23;;;23.73;;
18716;SDS011;9487;50.892;6.906;2024-01-07T01:44:23;37.10;;;23.90;;
18716;SDS011;9487;50.892;6.906;2024-01-07T01:46:52;37.27;;;22.57;;
18716;SDS011;9487;50.892;6.906;2024-01-07T01:49:20;34.97;;;21.53;;
18716;SDS011;9487;50.892;6.906;2024-01-07T01:51:47;32.97;;;21.03;;
18716;SDS011;9487;50.892;6.906;2024-01-07T01:54:15;34.70;;;20.47;;
18716;SDS011;9487;50.892;6.906;2024-01-07T01:56:42;33.23;;;20.93;;
18716;SDS011;9487;50.892;6.906;2024-01-07T01:59:10;29.37;;;18.80;;
18716;SDS011;9487;50.892;6.906;2024-01-07T02:01:38;28.70;;;18.53;;
18716;SDS011;9487;50.892;6.906;2024-01-07T02:04:05;29.80;;;18.00;;
18716;SDS011;9487;50.892;6.906;2024-01-07T02:06:33;27.73;;;17.77;;
18716;SDS011;9487;50.892;6.906;2024-01-07T02:09:01;24.17;;;16.17;;
18716;SDS011;9487;50.892;6.906;2024-01-07T02:11:28;27.30;;;17.07;;
18716;SDS011;9487;50.892;6.906;2024-01-07T02:13:55;24.70;;;16.23;;
18716;SDS011;9487;50.892;6.906;2024-01-07T02:16:22;21.87;;;15.73;;
18716;SDS011;9487;50.892;6.906;2024-01-07T02:18:50;21.57;;;15.10;;
18716;SDS011;9487;50.892;6.906;2024-01-07T02:21:18;23.03;;;14.87;;
18716;SDS011;9487;50.892;6.906;2024-01-07T02:23:47;21.20;;;14.60;;
18716;SDS011;9487;50.892;6.906;2024-01-07T02:26:15;20.63;;;14.73;;
18716;SDS011;9487;50.892;6.906;2024-01-07T02:28:42;19.57;;;13.93;;
18716;SDS011;9487;50.892;6.906;2024-01-07T02:31:09;19.97;;;14.77;;
18716;SDS011;9487;50.892;6.906;2024-01-07T02:33:36;19.83;;;13.73;;
18716;SDS011;9487;50.892;6.906;2024-01-07T02:36:03;20.10;;;13.80;;
18716;SDS011;9487;50.892;6.906;2024-01-07T02:38:30;20.33;;;13.97;;
18716;SDS011;9487;50.892;6.906;2024-01-07T02:40:57;18.57;;;13.47;;
18716;SDS011;9487;50.892;6.906;2024-01-07T02:43:25;18.47;;;13.27;;
18716;SDS011;9487;50.892;6.906;2024-01-07T02:45:52;19.07;;;13.97;;
18716;SDS011;9487;50.892;6.906;2024-01-07T02:48:19;21.10;;;14.20;;
18716;SDS011;9487;50.892;6.906;2024-01-07T02:50:46;18.70;;;14.27;;
18716;SDS011;9487;50.892;6.906;2024-01-07T02:53:13;19.97;;;14.07;;
18716;SDS011;9487;50.892;6.906;2024-01-07T02:55:40;20.90;;;15.10;;
18716;SDS011;9487;50.892;6.906;2024-01-07T02:58:06;22.27;;;15.30;;
18716;SDS011;9487;50.892;6.906;2024-01-07T03:00:37;23.47;;;15.73;;
18716;SDS011;9487;50.892;6.906;2024-01-07T03:03:04;20.33;;;15.20;;
18716;SDS011;9487;50.892;6.906;2024-01-07T03:05:30;20.90;;;15.17;;
18716;SDS011;9487;50.892;6.906;2024-01-07T03:07:59;25.20;;;15.87;;
18716;SDS011;9487;50.892;6.906;2024-01-07T03:10:26;22.80;;;14.73;;
18716;SDS011;9487;50.892;6.906;2024-01-07T03:12:53;24.67;;;16.43;;
18716;SDS011;9487;50.892;6.906;2024-01-07T03:15:20;22.37;;;15.77;;
18716;SDS011;9487;50.892;6.906;2024-01-07T03:17:48;23.67;;;17.80;;
18716;SDS011;9487;50.892;6.906;2024-01-07T03:20:15;25.10;;;17.47;;
18716;SDS011;9487;50.892;6.906;2024-01-07T03:22:44;22.50;;;16.57;;
18716;SDS011;9487;50.892;6.906;2024-01-07T03:25:10;25.53;;;18.43;;
18716;SDS011;9487;50.892;6.906;2024-01-07T03:27:37;25.57;;;18.17;;
18716;SDS011;9487;50.892;6.906;2024-01-07T03:30:05;23.70;;;16.40;;
18716;SDS011;9487;50.892;6.906;2024-01-07T03:32:33;24.07;;;16.90;;
18716;SDS011;9487;50.892;6.906;2024-01-07T03:35:01;27.27;;;18.90;;
18716;SDS011;9487;50.892;6.906;2024-01-07T03:37:28;23.07;;;16.23;;
18716;SDS011;9487;50.892;6.906;2024-01-07T03:39:55;23.60;;;16.70;;
18716;SDS011;9487;50.892;6.906;2024-01-07T03:42:22;25.03;;;18.17;;
18716;SDS011;9487;50.892;6.906;2024-01-07T03:44:49;23.80;;;16.90;;
18716;SDS011;9487;50.892;6.906;2024-01-07T03:47:16;25.27;;;17.50;;
18716;SDS011;9487;50.892;6.906;2024-01-07T03:49:43;26.00;;;17.13;;
18716;SDS011;9487;50.892;6.906;2024-01-07T03:52:11;25.90;;;17.67;;
18716;SDS011;9487;50.892;6.906;2024-01-07T03:54:38;24.97;;;17.13;;
18716;SDS011;9487;50.892;6.906;2024-01-07T03:57:05;25.70;;;17.30;;
18716;SDS011;9487;50.892;6.906;2024-01-07T03:59:32;27.43;;;18.73;;
18716;SDS011;9487;50.892;6.906;2024-01-07T04:01:59;26.93;;;17.80;;
18716;SDS011;9487;50.892;6.906;2024-01-07T04:04:26;28.23;;;18.40;;
18716;SDS011;9487;50.892;6.906;2024-01-07T04:06:52;31.87;;;21.17;;
18716;SDS011;9487;50.892;6.906;2024-01-07T04:09:21;31.20;;;20.10;;
18716;SDS011;9487;50.892;6.906;2024-01-07T04:11:49;33.60;;;21.40;;
18716;SDS011;9487;50.892;6.906;2024-01-07T04:14:16;35.17;;;20.70;;
18716;SDS011;9487;50.892;6.906;2024-01-07T04:16:43;37.70;;;23.33;;
18716;SDS011;9487;50.892;6.906;2024-01-07T04:19:10;36.57;;;23.87;;
18716;SDS011;9487;50.892;6.906;2024-01-07T04:21:37;35.27;;;23.43;;
18716;SDS011;9487;50.892;6.906;2024-01-07T04:24:04;38.77;;;24.00;;
18716;SDS011;9487;50.892;6.906;2024-01-07T04:26:33;42.17;;;25.80;;
18716;SDS011;9487;50.892;6.906;2024-01-07T04:28:59;39.13;;;24.30;;
18716;SDS011;9487;50.892;6.906;2024-01-07T04:31:27;39.53;;;25.27;;
18716;SDS011;9487;50.892;6.906;2024-01-07T04:33:54;40.53;;;25.43;;
18716;SDS011;9487;50.892;6.906;2024-01-07T04:36:21;37.97;;;24.47;;
18716;SDS011;9487;50.892;6.906;2024-01-07T04:38:48;37.10;;;23.57;;
18716;SDS011;9487;50.892;6.906;2024-01-07T04:41:17;38.97;;;24.87;;
18716;SDS011;9487;50.892;6.906;2024-01-07T04:43:45;38.33;;;23.87;;
18716;SDS011;9487;50.892;6.906;2024-01-07T04:46:14;39.17;;;24.07;;
18716;SDS011;9487;50.892;6.906;2024-01-07T04:48:42;37.03;;;23.90;;
18716;SDS011;9487;50.892;6.906;2024-01-07T04:51:08;38.13;;;24.03;;
18716;SDS011;9487;50.892;6.906;2024-01-07T04:53:35;36.50;;;22.13;;
18716;SDS011;9487;50.892;6.906;2024-01-07T04:56:04;38.80;;;23.67;;
18716;SDS011;9487;50.892;6.906;2024-01-07T04:58:31;37.27;;;23.77;;
18716;SDS011;9487;50.892;6.906;2024-01-07T05:00:59;39.97;;;25.20;;
18716;SDS011;9487;50.892;6.906;2024-01-07T05:03:29;36.60;;;24.47;;
18716;SDS011;9487;50.892;6.906;2024-01-07T05:05:57;40.03;;;25.17;;
18716;SDS011;9487;50.892;6.906;2024-01-07T05:08:24;39.93;;;25.90;;
18716;SDS011;9487;50.892;6.906;2024-01-07T05:10:53;40.57;;;25.57;;
18716;SDS011;9487;50.892;6.906;2024-01-07T05:13:20;36.77;;;23.23;;
18716;SDS011;9487;50.892;6.906;2024-01-07T05:15:47;38.10;;;24.47;;
18716;SDS011;9487;50.892;6.906;2024-01-07T05:18:19;33.90;;;22.23;;
18716;SDS011;9487;50.892;6.906;2024-01-07T05:20:46;32.47;;;21.90;;
18716;SDS011;9487;50.892;6.906;2024-01-07T05:23:13;30.73;;;20.10;;
18716;SDS011;9487;50.892;6.906;2024-01-07T05:25:43;33.00;;;21.57;;
18716;SDS011;9487;50.892;6.906;2024-01-07T05:28:10;33.33;;;20.27;;
18716;SDS011;9487;50.892;6.906;2024-01-07T05:30:38;33.43;;;21.50;;
18716;SDS011;9487;50.892;6.906;2024-01-07T05:33:05;33.47;;;22.10;;
18716;SDS011;9487;50.892;6.906;2024-01-07T05:35:33;32.23;;;21.27;;
18716;SDS011;9487;50.892;6.906;2024-01-07T05:38:00;32.37;;;21.47;;
18716;SDS011;9487;50.892;6.906;2024-01-07T05:40:27;30.43;;;21.90;;
18716;SDS011;9487;50.892;6.906;2024-01-07T05:42:54;32.97;;;22.53;;
18716;SDS011;9487;50.892;6.906;2024-01-07T05:45:21;34.50;;;22.57;;
18716;SDS011;9487;50.892;6.906;2024-01-07T05:47:48;32.90;;;22.67;;
18716;SDS011;9487;50.892;6.906;2024-01-07T05:50:15;31.50;;;21.93;;
18716;SDS011;9487;50.892;6.906;2024-01-07T05:52:45;35.50;;;22.47;;
18716;SDS011;9487;50.892;6.906;2024-01-07T05:55:14;35.53;;;22.67;;
18716;SDS011;9487;50.892;6.906;2024-01-07T05:57:42;36.03;;;23.00;;
18716;SDS011;9487;50.892;6.906;2024-01-07T06:00:10;31.93;;;22.23;;
18716;SDS011;9487;50.892;6.906;2024-01-07T06:02:38;32.37;;;21.87;;
18716;SDS011;9487;50.892;6.906;2024-01-07T06:05:05;31.77;;;21.67;;
18716;SDS011;9487;50.892;6.906;2024-01-07T06:07:32;33.93;;;23.27;;
18716;SDS011;9487;50.892;6.906;2024-01-07T06:10:01;32.63;;;22.70;;
18716;SDS011;9487;50.892;6.906;2024-01-07T06:12:28;34.70;;;23.40;;
18716;SDS011;9487;50.892;6.906;2024-01-07T06:14:55;32.83;;;21.60;;
18716;SDS011;9487;50.892;6.906;2024-01-07T06:17:21;33.43;;;22.80;;
18716;SDS011;9487;50.892;6.906;2024-01-07T06:19:49;33.17;;;22.73;;
18716;SDS011;9487;50.892;6.906;2024-01-07T06:22:16;36.73;;;24.97;;
18716;SDS011;9487;50.892;6.906;2024-01-07T06:24:42;35.87;;;24.83;;
18716;SDS011;9487;50.892;6.906;2024-01-07T06:27:11;34.70;;;24.50;;
18716;SDS011;9487;50.892;6.906;2024-01-07T06:29:39;37.23;;;23.90;;
18716;SDS011;9487;50.892;6.906;2024-01-07T06:32:06;36.73;;;25.07;;
18716;SDS011;9487;50.892;6.906;2024-01-07T06:34:34;37.57;;;25.60;;
18716;SDS011;9487;50.892;6.906;2024-01-07T06:37:02;35.97;;;25.13;;
18716;SDS011;9487;50.892;6.906;2024-01-07T06:39:31;36.43;;;24.87;;
18716;SDS011;9487;50.892;6.906;2024-01-07T06:42:01;37.23;;;24.07;;
18716;SDS011;9487;50.892;6.906;2024-01-07T06:44:29;37.90;;;24.40;;
18716;SDS011;9487;50.892;6.906;2024-01-07T06:46:56;33.50;;;23.73;;
18716;SDS011;9487;50.892;6.906;2024-01-07T06:49:22;35.53;;;25.27;;
18716;SDS011;9487;50.892;6.906;2024-01-07T06:51:49;37.60;;;25.73;;
18716;SDS011;9487;50.892;6.906;2024-01-07T06:54:16;33.83;;;24.73;;
18716;SDS011;9487;50.892;6.906;2024-01-07T06:56:43;33.13;;;24.47;;
18716;SDS011;9487;50.892;6.906;2024-01-07T06:59:10;35.40;;;23.97;;
18716;SDS011;9487;50.892;6.906;2024-01-07T07:01:39;33.97;;;24.37;;
18716;SDS011;9487;50.892;6.906;2024-01-07T07:04:06;34.33;;;24.07;;
18716;SDS011;9487;50.892;6.906;2024-01-07T07:06:34;32.63;;;22.93;;
18716;SDS011;9487;50.892;6.906;2024-01-07T07:09:00;32.33;;;22.37;;
18716;SDS011;9487;50.892;6.906;2024-01-07T07:11:27;33.50;;;23.00;;
18716;SDS011;9487;50.892;6.906;2024-01-07T07:13:54;30.70;;;22.67;;
18716;SDS011;9487;50.892;6.906;2024-01-07T07:16:22;33.50;;;23.53;;
18716;SDS011;9487;50.892;6.906;2024-01-07T07:18:51;33.87;;;23.43;;
18716;SDS011;9487;50.892;6.906;2024-01-07T07:21:19;31.87;;;22.60;;
18716;SDS011;9487;50.892;6.906;2024-01-07T07:23:46;35.70;;;24.07;;
18716;SDS011;9487;50.892;6.906;2024-01-07T07:26:13;31.03;;;21.50;;
18716;SDS011;9487;50.892;6.906;2024-01-07T07:28:42;31.70;;;21.73;;
18716;SDS011;9487;50.892;6.906;2024-01-07T07:31:10;28.57;;;20.47;;
18716;SDS011;9487;50.892;6.906;2024-01-07T07:33:38;31.40;;;21.93;;
18716;SDS011;9487;50.892;6.906;2024-01-07T07:36:06;28.40;;;20.97;;
18716;SDS011;9487;50.892;6.906;2024-01-07T07:38:35;27.73;;;20.80;;
18716;SDS011;9487;50.892;6.906;2024-01-07T07:41:02;28.53;;;20.37;;
18716;SDS011;9487;50.892;6.906;2024-01-07T07:43:29;26.37;;;18.97;;
18716;SDS011;9487;50.892;6.906;2024-01-07T07:45:56;24.67;;;18.30;;
18716;SDS011;9487;50.892;6.906;2024-01-07T07:48:23;23.47;;;17.90;;
18716;SDS011;9487;50.892;6.906;2024-01-07T07:50:51;25.77;;;18.30;;
18716;SDS011;9487;50.892;6.906;2024-01-07T07:53:19;21.83;;;16.73;;
18716;SDS011;9487;50.892;6.906;2024-01-07T07:55:46;23.27;;;17.03;;
18716;SDS011;9487;50.892;6.906;2024-01-07T07:58:14;24.20;;;17.77;;
18716;SDS011;9487;50.892;6.906;2024-01-07T08:00:45;26.90;;;19.10;;
18716;SDS011;9487;50.892;6.906;2024-01-07T08:03:13;24.83;;;18.87;;
18716;SDS011;9487;50.892;6.906;2024-01-07T08:05:42;24.63;;;19.60;;
18716;SDS011;9487;50.892;6.906;2024-01-07T08:08:09;26.87;;;20.50;;
18716;SDS011;9487;50.892;6.906;2024-01-07T08:10:37;25.43;;;18.87;;
18716;SDS011;9487;50.892;6.906;2024-01-07T08:13:04;23.03;;;19.10;;
18716;SDS011;9487;50.892;6.906;2024-01-07T08:15:32;26.40;;;21.17;;
18716;SDS011;9487;50.892;6.906;2024-01-07T08:17:58;27.33;;;20.30;;
18716;SDS011;9487;50.892;6.906;2024-01-07T08:20:25;25.53;;;19.10;;
18716;SDS011;9487;50.892;6.906;2024-01-07T08:22:52;22.70;;;17.77;;
18716;SDS011;9487;50.892;6.906;2024-01-07T08:25:19;25.00;;;18.57;;
18716;SDS011;9487;50.892;6.906;2024-01-07T08:27:47;24.30;;;18.63;;
18716;SDS011;9487;50.892;6.906;2024-01-07T08:30:16;26.70;;;19.70;;
18716;SDS011;9487;50.892;6.906;2024-01-07T08:32:43;24.43;;;19.00;;
18716;SDS011;9487;50.892;6.906;2024-01-07T08:35:10;27.20;;;20.30;;
18716;SDS011;9487;50.892;6.906;2024-01-07T08:37:38;29.33;;;20.60;;
18716;SDS011;9487;50.892;6.906;2024-01-07T08:40:05;29.43;;;20.73;;
18716;SDS011;9487;50.892;6.906;2024-01-07T08:42:34;25.90;;;19.97;;
18716;SDS011;9487;50.892;6.906;2024-01-07T08:45:04;28.67;;;20.53;;
18716;SDS011;9487;50.892;6.906;2024-01-07T08:47:31;28.43;;;20.83;;
18716;SDS011;9487;50.892;6.906;2024-01-07T08:49:59;28.20;;;20.93;;
18716;SDS011;9487;50.892;6.906;2024-01-07T08:52:26;27.77;;;20.90;;
18716;SDS011;9487;50.892;6.906;2024-01-07T08:54:53;28.00;;;20.53;;
18716;SDS011;9487;50.892;6.906;2024-01-07T08:57:20;26.93;;;20.67;;
18716;SDS011;9487;50.892;6.906;2024-01-07T08:59:47;29.67;;;20.83;;
18716;SDS011;9487;50.892;6.906;2024-01-07T09:02:15;28.77;;;22.07;;
18716;SDS011;9487;50.892;6.906;2024-01-07T09:04:42;30.13;;;21.33;;
18716;SDS011;9487;50.892;6.906;2024-01-07T09:07:09;28.80;;;21.73;;
18716;SDS011;9487;50.892;6.906;2024-01-07T09:09:37;27.63;;;20.43;;
18716;SDS011;9487;50.892;6.906;2024-01-07T09:12:05;27.70;;;20.73;;
18716;SDS011;9487;50.892;6.906;2024-01-07T09:14:33;29.00;;;21.33;;
18716;SDS011;9487;50.892;6.906;2024-01-07T09:17:00;31.17;;;22.67;;
18716;SDS011;9487;50.892;6.906;2024-01-07T09:19:31;30.33;;;21.73;;
18716;SDS011;9487;50.892;6.906;2024-01-07T09:21:58;31.50;;;21.80;;
18716;SDS011;9487;50.892;6.906;2024-01-07T09:24:27;29.50;;;22.37;;
18716;SDS011;9487;50.892;6.906;2024-01-07T09:26:55;29.97;;;20.80;;
18716;SDS011;9487;50.892;6.906;2024-01-07T09:29:22;28.40;;;18.97;;
18716;SDS011;9487;50.892;6.906;2024-01-07T09:31:49;29.13;;;20.97;;
18716;SDS011;9487;50.892;6.906;2024-01-07T09:34:16;28.07;;;19.83;;
18716;SDS011;9487;50.892;6.906;2024-01-07T09:36:44;27.03;;;21.30;;
18716;SDS011;9487;50.892;6.906;2024-01-07T09:39:11;28.03;;;20.87;;
18716;SDS011;9487;50.892;6.906;2024-01-07T09:41:38;25.03;;;19.03;;
18716;SDS011;9487;50.892;6.906;2024-01-07T09:44:05;28.93;;;20.07;;
18716;SDS011;9487;50.892;6.906;2024-01-07T09:46:34;27.17;;;19.43;;
18716;SDS011;9487;50.892;6.906;2024-01-07T09:49:03;28.13;;;18.50;;
18716;SDS011;9487;50.892;6.906;2024-01-07T09:51:31;26.27;;;19.10;;
18716;SDS011;9487;50.892;6.906;2024-01-07T09:54:03;21.63;;;16.73;;
18716;SDS011;9487;50.892;6.906;2024-01-07T09:56:41;21.43;;;16.57;;
18716;SDS011;9487;50.892;6.906;2024-01-07T09:59:15;21.13;;;15.63;;
18716;SDS011;9487;50.892;6.906;2024-01-07T10:01:43;21.77;;;15.00;;
18716;SDS011;9487;50.892;6.906;2024-01-07T10:04:11;18.30;;;14.63;;
18716;SDS011;9487;50.892;6.906;2024-01-07T10:06:39;17.70;;;14.27;;
18716;SDS011;9487;50.892;6.906;2024-01-07T10:09:07;18.37;;;14.50;;
18716;SDS011;9487;50.892;6.906;2024-01-07T10:11:34;17.50;;;14.07;;
18716;SDS011;9487;50.892;6.906;2024-01-07T10:14:02;18.17;;;13.97;;
18716;SDS011;9487;50.892;6.906;2024-01-07T10:16:28;16.27;;;13.37;;
18716;SDS011;9487;50.892;6.906;2024-01-07T10:18:57;14.57;;;12.10;;
18716;SDS011;9487;50.892;6.906;2024-01-07T10:21:24;14.10;;;12.10;;
18716;SDS011;9487;50.892;6.906;2024-01-07T10:23:53;14.70;;;12.20;;
18716;SDS011;9487;50.892;6.906;2024-01-07T10:26:37;13.87;;;11.33;;
18716;SDS011;9487;50.892;6.906;2024-01-07T10:29:04;14.23;;;12.10;;
18716;SDS011;9487;50.892;6.906;2024-01-07T10:31:31;17.63;;;14.30;;
18716;SDS011;9487;50.892;6.906;2024-01-07T10:33:58;19.07;;;14.97;;
18716;SDS011;9487;50.892;6.906;2024-01-07T10:36:26;15.80;;;12.87;;
18716;SDS011;9487;50.892;6.906;2024-01-07T10:38:52;15.47;;;13.33;;
18716;SDS011;9487;50.892;6.906;2024-01-07T10:41:22;18.93;;;15.37;;
18716;SDS011;9487;50.892;6.906;2024-01-07T10:43:51;19.50;;;15.50;;
18716;SDS011;9487;50.892;6.906;2024-01-07T10:46:18;17.03;;;14.37;;
18716;SDS011;9487;50.892;6.906;2024-01-07T10:48:49;16.43;;;13.67;;
18716;SDS011;9487;50.892;6.906;2024-01-07T10:51:27;16.63;;;13.50;;
18716;SDS011;9487;50.892;6.906;2024-01-07T10:53:55;16.80;;;12.63;;
18716;SDS011;9487;50.892;6.906;2024-01-07T10:56:24;15.13;;;13.00;;
18716;SDS011;9487;50.892;6.906;2024-01-07T10:58:51;15.70;;;12.70;;
18716;SDS011;9487;50.892;6.906;2024-01-07T11:01:19;14.07;;;12.53;;
18716;SDS011;9487;50.892;6.906;2024-01-07T11:03:49;15.67;;;12.93;;
18716;SDS011;9487;50.892;6.906;2024-01-07T11:06:24;15.77;;;13.13;;
18716;SDS011;9487;50.892;6.906;2024-01-07T11:08:58;16.77;;;13.23;;
18716;SDS011;9487;50.892;6.906;2024-01-07T11:11:35;18.80;;;14.27;;
18716;SDS011;9487;50.892;6.906;2024-01-07T11:14:07;18.37;;;14.97;;
18716;SDS011;9487;50.892;6.906;2024-01-07T11:17:00;19.30;;;14.93;;
18716;SDS011;9487;50.892;6.906;2024-01-07T11:19:27;23.00;;;16.63;;
18716;SDS011;9487;50.892;6.906;2024-01-07T11:21:57;22.53;;;16.27;;
18716;SDS011;9487;50.892;6.906;2024-01-07T11:24:53;22.00;;;16.07;;
18716;SDS011;9487;50.892;6.906;2024-01-07T11:27:22;21.70;;;15.37;;
18716;SDS011;9487;50.892;6.906;2024-01-07T11:29:53;22.47;;;16.53;;
18716;SDS011;9487;50.892;6.906;2024-01-07T11:32:21;22.77;;;17.00;;
18716;SDS011;9487;50.892;6.906;2024-01-07T11:34:50;21.87;;;16.73;;
18716;SDS011;9487;50.892;6.906;2024-01-07T11:37:18;20.50;;;16.17;;
18716;SDS011;9487;50.892;6.906;2024-01-07T11:39:46;19.20;;;15.53;;
18716;SDS011;9487;50.892;6.906;2024-01-07T11:42:14;22.00;;;17.33;;
18716;SDS011;9487;50.892;6.906;2024-01-07T11:44:46;21.10;;;14.87;;
18716;SDS011;9487;50.892;6.906;2024-01-07T11:47:13;20.97;;;16.00;;
18716;SDS011;9487;50.892;6.906;2024-01-07T11:49:41;18.93;;;15.17;;
18716;SDS011;9487;50.892;6.906;2024-01-07T11:52:08;22.67;;;17.40;;
18716;SDS011;9487;50.892;6.906;2024-01-07T11:54:35;24.50;;;17.07;;
18716;SDS011;9487;50.892;6.906;2024-01-07T11:57:03;22.83;;;16.60;;
18716;SDS011;9487;50.892;6.906;2024-01-07T11:59:31;20.60;;;16.33;;
18716;SDS011;9487;50.892;6.906;2024-01-07T12:02:00;21.13;;;17.20;;
18716;SDS011;9487;50.892;6.906;2024-01-07T12:04:29;21.70;;;17.43;;
18716;SDS011;9487;50.892;6.906;2024-01-07T12:06:56;21.73;;;16.43;;
18716;SDS011;9487;50.892;6.906;2024-01-07T12:09:25;21.63;;;17.40;;
18716;SDS011;9487;50.892;6.906;2024-01-07T12:11:52;21.80;;;17.53;;
18716;SDS011;9487;50.892;6.906;2024-01-07T12:14:19;22.47;;;16.30;;
18716;SDS011;9487;50.892;6.906;2024-01-07T12:16:46;16.87;;;13.53;;
18716;SDS011;9487;50.892;6.906;2024-01-07T12:19:16;20.23;;;14.57;;
18716;SDS011;9487;50.892;6.906;2024-01-07T12:21:45;15.60;;;11.17;;
18716;SDS011;9487;50.892;6.906;2024-01-07T12:24:12;19.67;;;15.23;;
18716;SDS011;9487;50.892;6.906;2024-01-07T12:26:39;21.83;;;17.23;;
18716;SDS011;9487;50.892;6.906;2024-01-07T12:29:06;20.73;;;15.53;;
18716;SDS011;9487;50.892;6.906;2024-01-07T12:31:35;19.17;;;14.70;;
18716;SDS011;9487;50.892;6.906;2024-01-07T12:34:03;18.97;;;14.63;;
18716;SDS011;9487;50.892;6.906;2024-01-07T12:36:32;19.10;;;15.00;;
18716;SDS011;9487;50.892;6.906;2024-01-07T12:38:59;18.43;;;14.33;;
18716;SDS011;9487;50.892;6.906;2024-01-07T12:41:26;17.23;;;12.43;;
18716;SDS011;9487;50.892;6.906;2024-01-07T12:43:54;16.47;;;13.13;;
18716;SDS011;9487;50.892;6.906;2024-01-07T12:46:21;18.80;;;13.50;;
18716;SDS011;9487;50.892;6.906;2024-01-07T12:48:47;19.80;;;15.23;;
18716;SDS011;9487;50.892;6.906;2024-01-07T12:51:14;18.47;;;15.23;;
18716;SDS011;9487;50.892;6.906;2024-01-07T12:53:43;19.60;;;15.37;;
18716;SDS011;9487;50.892;6.906;2024-01-07T12:56:11;20.57;;;14.67;;
18716;SDS011;9487;50.892;6.906;2024-01-07T12:58:38;18.60;;;14.30;;
18716;SDS011;9487;50.892;6.906;2024-01-07T13:01:05;17.70;;;14.33;;
18716;SDS011;9487;50.892;6.906;2024-01-07T13:03:31;17.10;;;13.00;;
18716;SDS011;9487;50.892;6.906;2024-01-07T13:05:58;16.60;;;13.23;;
18716;SDS011;9487;50.892;6.906;2024-01-07T13:08:26;18.37;;;13.70;;
18716;SDS011;9487;50.892;6.906;2024-01-07T13:10:54;16.03;;;12.87;;
18716;SDS011;9487;50.892;6.906;2024-01-07T13:13:21;17.10;;;13.77;;
18716;SDS011;9487;50.892;6.906;2024-01-07T13:15:48;16.63;;;12.73;;
18716;SDS011;9487;50.892;6.906;2024-01-07T13:18:16;14.20;;;10.37;;
18716;SDS011;9487;50.892;6.906;2024-01-07T13:20:42;15.13;;;11.63;;
18716;SDS011;9487;50.892;6.906;2024-01-07T13:23:09;15.23;;;12.53;;
18716;SDS011;9487;50.892;6.906;2024-01-07T13:25:36;16.33;;;12.60;;
18716;SDS011;9487;50.892;6.906;2024-01-07T13:28:06;12.97;;;11.30;;
18716;SDS011;9487;50.892;6.906;2024-01-07T13:30:35;13.70;;;10.97;;
18716;SDS011;9487;50.892;6.906;2024-01-07T13:33:03;11.50;;;9.70;;
18716;SDS011;9487;50.892;6.906;2024-01-07T13:35:30;11.67;;;9.60;;
18716;SDS011;9487;50.892;6.906;2024-01-07T13:37:57;12.07;;;9.53;;
18716;SDS011;9487;50.892;6.906;2024-01-07T13:40:24;13.00;;;10.67;;
18716;SDS011;9487;50.892;6.906;2024-01-07T13:42:52;11.77;;;9.80;;
18716;SDS011;9487;50.892;6.906;2024-01-07T13:45:20;14.50;;;10.17;;
18716;SDS011;9487;50.892;6.906;2024-01-07T13:47:48;12.43;;;9.17;;
18716;SDS011;9487;50.892;6.906;2024-01-07T13:50:15;10.00;;;8.27;;
18716;SDS011;9487;50.892;6.906;2024-01-07T13:52:43;9.07;;;7.60;;
18716;SDS011;9487;50.892;6.906;2024-01-07T13:55:10;10.93;;;8.17;;
18716;SDS011;9487;50.892;6.906;2024-01-07T13:57:38;8.30;;;7.47;;
18716;SDS011;9487;50.892;6.906;2024-01-07T14:00:06;9.83;;;8.57;;
18716;SDS011;9487;50.892;6.906;2024-01-07T14:02:36;9.63;;;8.20;;
18716;SDS011;9487;50.892;6.906;2024-01-07T14:05:04;12.20;;;8.33;;
18716;SDS011;9487;50.892;6.906;2024-01-07T14:07:33;10.00;;;8.43;;
18716;SDS011;9487;50.892;6.906;2024-01-07T14:10:06;8.23;;;6.70;;
18716;SDS011;9487;50.892;6.906;2024-01-07T14:12:33;9.07;;;7.27;;
18716;SDS011;9487;50.892;6.906;2024-01-07T14:15:02;12.27;;;8.77;;
18716;SDS011;9487;50.892;6.906;2024-01-07T14:17:29;9.83;;;8.83;;
18716;SDS011;9487;50.892;6.906;2024-01-07T14:19:57;9.17;;;8.27;;
18716;SDS011;9487;50.892;6.906;2024-01-07T14:22:24;10.13;;;8.47;;
18716;SDS011;9487;50.892;6.906;2024-01-07T14:24:51;10.37;;;8.50;;
18716;SDS011;9487;50.892;6.906;2024-01-07T14:27:19;8.67;;;7.77;;
18716;SDS011;9487;50.892;6.906;2024-01-07T14:29:46;10.17;;;9.03;;
18716;SDS011;9487;50.892;6.906;2024-01-07T14:32:13;10.20;;;9.00;;
18716;SDS011;9487;50.892;6.906;2024-01-07T14:34:40;9.90;;;8.77;;
18716;SDS011;9487;50.892;6.906;2024-01-07T14:37:10;9.87;;;7.93;;
18716;SDS011;9487;50.892;6.906;2024-01-07T14:39:38;10.37;;;9.37;;